TimeMDT,TemperatureF,Dew PointF,Humidity,Sea Level PressureIn,VisibilityMPH,Wind Direction,Wind SpeedMPH,Gust SpeedMPH,PrecipitationIn,Events,Conditions,WindDirDegrees,DateUTC
12:20 AM,60.8,60.8,100,30.13,10.0,Calm,Calm,-,0.01,,Overcast,0,2013-09-15 06:20:00
12:36 AM,60.8,59.0,94,30.13,10.0,Calm,Calm,-,0.01,,Overcast,0,2013-09-15 06:36:00
12:46 AM,60.8,59.0,94,30.13,10.0,Calm,Calm,-,0.01,,Overcast,0,2013-09-15 06:46:00
12:53 AM,61.0,60.1,97,30.06,10.0,Calm,Calm,-,0.01,,Overcast,0,2013-09-15 06:53:00
1:03 AM,60.8,60.8,100,30.13,3.0,Calm,Calm,-,0.01,Rain,Rain,0,2013-09-15 07:03:00
1:10 AM,60.8,59.0,94,30.13,2.0,North,5.8,-,0.09,Rain,Rain,350,2013-09-15 07:10:00
1:13 AM,60.8,59.0,94,30.13,3.0,North,5.8,-,0.11,Rain,Heavy Rain,350,2013-09-15 07:13:00
1:49 AM,60.8,60.8,100,30.14,10.0,Calm,Calm,-,0.13,,Overcast,0,2013-09-15 07:49:00
1:53 AM,61.0,60.1,97,30.08,10.0,Calm,Calm,-,0.13,,Overcast,0,2013-09-15 07:53:00
2:21 AM,60.8,60.8,100,30.14,8.0,Calm,Calm,-,N/A,,Overcast,0,2013-09-15 08:21:00
2:39 AM,60.8,59.0,94,30.15,6.0,NNE,3.5,-,N/A,,Overcast,30,2013-09-15 08:39:00
2:53 AM,61.0,59.0,93,30.09,6.0,NE,3.5,-,N/A,,Overcast,40,2013-09-15 08:53:00
3:17 AM,60.8,59.0,94,30.15,5.0,NNE,3.5,-,N/A,,Overcast,20,2013-09-15 09:17:00
3:53 AM,60.1,59.0,96,30.11,4.0,Calm,Calm,-,N/A,,Overcast,0,2013-09-15 09:53:00
4:11 AM,60.8,59.0,94,30.17,2.0,Calm,Calm,-,N/A,,Overcast,0,2013-09-15 10:11:00
4:21 AM,60.8,57.2,88,30.17,3.0,Calm,Calm,-,N/A,,Mostly Cloudy,0,2013-09-15 10:21:00
4:39 AM,60.8,57.2,88,30.17,10.0,Calm,Calm,-,N/A,,Mostly Cloudy,0,2013-09-15 10:39:00
4:53 AM,59.0,57.0,93,30.12,9.0,Calm,Calm,-,N/A,,Mostly Cloudy,0,2013-09-15 10:53:00
5:45 AM,59.0,57.2,94,30.19,10.0,ESE,4.6,-,N/A,,Overcast,110,2013-09-15 11:45:00
5:53 AM,59.0,57.0,93,30.14,10.0,ESE,3.5,-,N/A,,Overcast,120,2013-09-15 11:53:00
6:53 AM,57.9,55.0,90,30.16,10.0,ESE,5.8,-,N/A,,Mostly Cloudy,110,2013-09-15 12:53:00
7:05 AM,57.2,55.4,94,30.21,10.0,East,4.6,-,N/A,,Mostly Cloudy,100,2013-09-15 13:05:00
7:33 AM,57.2,55.4,94,30.21,10.0,East,8.1,-,N/A,,Scattered Clouds,90,2013-09-15 13:33:00
7:53 AM,59.0,55.9,90,30.16,10.0,East,8.1,-,N/A,,Partly Cloudy,80,2013-09-15 13:53:00
8:07 AM,59.0,55.4,88,30.21,10.0,ESE,8.1,-,N/A,,Mostly Cloudy,110,2013-09-15 14:07:00
8:39 AM,59.0,55.4,88,30.22,10.0,ESE,6.9,-,N/A,,Mostly Cloudy,120,2013-09-15 14:39:00
8:48 AM,60.8,55.4,82,30.22,10.0,SE,10.4,-,N/A,,Scattered Clouds,140,2013-09-15 14:48:00
8:49 AM,60.1,55.9,86,30.16,10.0,SE,10.4,-,N/A,,Scattered Clouds,140,2013-09-15 14:49:00
9:53 AM,63.0,57.0,81,30.16,10.0,SE,12.7,-,N/A,,Mostly Cloudy,140,2013-09-15 15:53:00
10:53 AM,66.0,55.0,68,30.15,10.0,ESE,13.8,21.9,N/A,,Partly Cloudy,120,2013-09-15 16:53:00
11:53 AM,68.0,54.0,61,30.14,10.0,East,17.3,-,N/A,,Scattered Clouds,100,2013-09-15 17:53:00
12:53 PM,69.1,52.0,54,30.13,10.0,ESE,16.1,25.3,N/A,,Mostly Cloudy,110,2013-09-15 18:53:00
1:53 PM,71.1,52.0,51,30.12,10.0,SE,16.1,25.3,N/A,,Scattered Clouds,130,2013-09-15 19:53:00
2:53 PM,71.1,52.0,51,30.10,10.0,SE,13.8,27.6,N/A,,Partly Cloudy,140,2013-09-15 20:53:00
3:53 PM,71.1,53.1,53,30.08,10.0,SSE,19.6,25.3,N/A,,Partly Cloudy,150,2013-09-15 21:53:00
4:53 PM,69.1,52.0,54,30.08,10.0,SE,17.3,29.9,N/A,,Clear,130,2013-09-15 22:53:00
5:53 PM,66.0,52.0,60,30.07,10.0,SE,20.7,29.9,N/A,,Clear,140,2013-09-15 23:53:00
6:53 PM,64.9,51.1,61,30.06,10.0,SSE,23.0,32.2,N/A,,Clear,150,2013-09-16 00:53:00
7:53 PM,63.0,50.0,63,30.06,10.0,SE,17.3,26.5,N/A,,Clear,140,2013-09-16 01:53:00
8:53 PM,61.0,51.1,70,30.06,10.0,SE,16.1,28.8,N/A,,Clear,140,2013-09-16 02:53:00
9:53 PM,61.0,51.1,70,30.04,10.0,SSE,13.8,27.6,N/A,,Clear,150,2013-09-16 03:53:00
10:53 PM,60.1,50.0,69,30.03,10.0,SE,17.3,23.0,N/A,,Clear,140,2013-09-16 04:53:00
11:53 PM,59.0,50.0,72,30.01,10.0,SSE,19.6,25.3,N/A,,Clear,150,2013-09-16 05:53:00